Time;durP1;ratioP1;P1;durP2;ratioP2;P2;SDS_P1;SDS_P2;PMS_P1;PMS_P2;Temp;Humidity;BMP_temperature;BMP_pressure;BME280_temperature;BME280_humidity;BME280_pressure;Samples;Min_cycle;Max_cycle;Signal;HPM_P1;HPM_P2
2022/11/15 00:01:18;;;;;;;66.55;42.38;;;;;;;6.84;68.94;95223.91;4142340;28;20108;-74
2022/11/15 00:03:25;;;;;;;74.28;45.45;;;;;;;6.92;68.55;95220.66;4144353;28;20054;-73
2022/11/15 00:05:26;;;;;;;68.05;42.95;;;;;;;6.95;68.00;95221.25;4143556;28;20523;-76
2022/11/15 00:07:28;;;;;;;65.55;41.97;;;;;;;6.98;68.38;95213.16;4145269;28;20374;-76
2022/11/15 00:09:50;;;;;;;64.55;39.95;;;;;;;7.03;68.43;95217.19;4131445;28;20053;-73
2022/11/15 00:11:52;;;;;;;72.88;42.75;;;;;;;7.04;68.20;95218.84;4142987;28;20050;-73
2022/11/15 00:13:57;;;;;;;67.97;42.13;;;;;;;7.01;68.11;95221.69;4144820;28;20057;-74
2022/11/15 00:16:01;;;;;;;65.78;42.65;;;;;;;6.98;68.18;95214.94;4144228;28;20061;-72
2022/11/15 00:18:03;;;;;;;73.72;42.08;;;;;;;7.00;68.19;95213.06;4143191;28;20171;-73
2022/11/15 00:20:05;;;;;;;67.45;41.55;;;;;;;6.98;68.16;95205.34;4144744;28;20228;-75
2022/11/15 00:22:07;;;;;;;61.20;39.75;;;;;;;7.00;68.27;95207.03;4148223;28;20153;-73
2022/11/15 00:24:09;;;;;;;63.45;41.70;;;;;;;7.00;68.14;95207.84;4127967;28;20058;-74
2022/11/15 00:26:14;;;;;;;72.95;45.33;;;;;;;7.00;67.97;95207.03;4144622;28;20364;-75
2022/11/15 00:28:16;;;;;;;64.53;42.17;;;;;;;7.04;68.06;95203.22;4142834;28;20492;-75
2022/11/15 00:30:18;;;;;;;62.42;39.95;;;;;;;7.02;67.98;95199.91;4142839;28;20073;-76
2022/11/15 00:32:19;;;;;;;65.57;42.75;;;;;;;6.99;67.69;95198.38;4143781;28;20061;-75
2022/11/15 00:34:21;;;;;;;67.10;45.55;;;;;;;6.98;67.63;95205.34;4144544;28;20160;-74
2022/11/15 00:36:23;;;;;;;69.18;44.50;;;;;;;6.91;67.51;95204.22;4143454;28;20081;-76
2022/11/15 00:38:24;;;;;;;72.10;44.03;;;;;;;6.87;67.92;95192.38;4142441;28;20461;-75
2022/11/15 00:40:26;;;;;;;69.90;45.83;;;;;;;6.90;67.89;95202.53;4144757;28;20495;-74
2022/11/15 00:42:31;;;;;;;68.93;44.90;;;;;;;6.88;68.05;95198.41;4144183;28;20362;-74
2022/11/15 00:44:32;;;;;;;64.63;41.00;;;;;;;6.88;67.97;95190.59;4141685;28;20671;-72
2022/11/15 00:46:34;;;;;;;64.82;43.58;;;;;;;6.81;67.87;95187.66;4143178;28;20433;-73
2022/11/15 00:48:36;;;;;;;62.80;40.45;;;;;;;6.77;67.88;95194.06;4142826;28;20046;-72
2022/11/15 00:50:38;;;;;;;69.65;43.60;;;;;;;6.75;68.46;95199.41;4143131;28;20068;-71
2022/11/15 00:52:39;;;;;;;64.53;40.30;;;;;;;6.73;68.20;95187.44;4144509;28;20050;-73
2022/11/15 00:54:41;;;;;;;61.60;41.03;;;;;;;6.71;68.20;95192.81;4143871;28;20766;-73
2022/11/15 00:56:43;;;;;;;60.38;41.25;;;;;;;6.73;68.10;95190.91;4143725;28;20056;-71
2022/11/15 00:58:44;;;;;;;66.22;43.97;;;;;;;6.75;68.07;95193.38;4142805;28;20045;-72
2022/11/15 01:00:46;;;;;;;62.85;41.47;;;;;;;6.77;67.90;95186.25;4144037;28;20061;-74
2022/11/15 01:02:48;;;;;;;59.47;38.75;;;;;;;6.82;67.49;95185.88;4142367;28;20045;-75
2022/11/15 01:04:50;;;;;;;57.53;37.13;;;;;;;6.81;67.93;95182.44;4142941;28;20057;-75
2022/11/15 01:06:51;;;;;;;57.25;36.53;;;;;;;6.81;67.88;95182.44;4143108;28;20552;-75
2022/11/15 01:08:53;;;;;;;59.00;35.85;;;;;;;6.80;67.68;95179.97;4131194;28;20050;-76
2022/11/15 01:11:03;;;;;;;61.40;38.47;;;;;;;6.75;68.20;95182.94;4144288;28;20068;-73
2022/11/15 01:13:05;;;;;;;61.70;37.75;;;;;;;6.77;68.77;95181.03;4143213;28;20085;-73
2022/11/15 01:15:07;;;;;;;65.10;39.80;;;;;;;6.75;68.27;95181.19;4142357;28;20216;-72
2022/11/15 01:17:09;;;;;;;59.22;38.05;;;;;;;6.74;68.27;95181.31;4143685;28;20209;-73
2022/11/15 01:19:11;;;;;;;59.33;39.03;;;;;;;6.74;67.88;95186.50;4144069;28;20046;-73
2022/11/15 01:21:16;;;;;;;61.60;39.03;;;;;;;6.72;67.98;95191.84;4144012;28;20042;-73
2022/11/15 01:23:17;;;;;;;54.55;36.05;;;;;;;6.71;67.70;95186.75;4142193;28;20432;-72
2022/11/15 01:25:19;;;;;;;61.60;37.65;;;;;;;6.73;67.54;95184.84;4144178;28;20053;-72
2022/11/15 01:27:21;;;;;;;58.45;36.97;;;;;;;6.73;68.03;95184.84;4143748;28;20115;-70
2022/11/15 01:29:23;;;;;;;57.15;35.38;;;;;;;6.66;67.98;95184.50;4144101;28;20049;-71
2022/11/15 01:31:24;;;;;;;63.25;36.15;;;;;;;6.54;67.62;95177.72;4143112;28;20093;-75
2022/11/15 01:33:27;;;;;;;61.88;36.28;;;;;;;6.40;67.94;95186.59;4143653;28;20054;-73
2022/11/15 01:35:30;;;;;;;61.58;36.53;;;;;;;6.34;68.48;95179.28;4133838;28;20062;-73
2022/11/15 01:37:31;;;;;;;55.30;34.88;;;;;;;6.30;68.55;95177.84;4143802;28;20132;-73
2022/11/15 01:39:33;;;;;;;55.10;36.08;;;;;;;6.22;68.73;95182.88;4140239;28;20140;-73
2022/11/15 01:41:35;;;;;;;61.75;35.83;;;;;;;6.12;68.38;95180.13;4132350;28;20052;-72
2022/11/15 01:43:36;;;;;;;54.50;35.97;;;;;;;6.00;69.02;95173.28;4143287;28;20522;-73
2022/11/15 01:45:38;;;;;;;57.65;35.05;;;;;;;5.84;70.13;95177.03;4143410;28;20049;-72
2022/11/15 01:47:50;;;;;;;51.45;34.33;;;;;;;5.86;70.13;95182.13;4143130;28;20544;-73
2022/11/15 01:50:27;;;;;;;53.08;33.42;;;;;;;5.84;70.32;95177.03;4143210;28;20050;-75
2022/11/15 01:52:46;;;;;;;50.25;32.30;;;;;;;5.85;70.52;95178.72;4131983;28;20141;-76
2022/11/15 01:55:27;;;;;;;51.60;32.85;;;;;;;5.81;70.52;95176.44;4112853;28;20063;-72
2022/11/15 01:57:46;;;;;;;49.03;33.88;;;;;;;5.84;70.76;95173.63;4110810;28;20524;-72
2022/11/15 01:59:49;;;;;;;49.30;32.63;;;;;;;5.83;71.06;95174.56;4126407;28;20050;-72
2022/11/15 02:01:51;;;;;;;53.53;34.72;;;;;;;5.74;71.13;95173.50;4140737;28;20116;-71
2022/11/15 02:03:58;;;;;;;59.70;35.67;;;;;;;5.65;71.15;95174.22;4143200;28;20041;-71
2022/11/15 02:05:59;;;;;;;53.50;34.22;;;;;;;5.60;71.77;95174.56;4142218;28;20125;-72
2022/11/15 02:08:01;;;;;;;58.80;34.60;;;;;;;5.68;71.81;95176.59;4143650;28;20125;-73
2022/11/15 02:10:07;;;;;;;54.95;33.28;;;;;;;5.81;71.32;95169.50;4137776;28;20760;-72
2022/11/15 02:12:09;;;;;;;50.83;32.28;;;;;;;5.84;70.48;95171.84;4141742;28;20658;-71
2022/11/15 02:14:13;;;;;;;52.72;34.05;;;;;;;5.79;70.58;95168.78;4142423;28;20168;-72
2022/11/15 02:16:27;;;;;;;;;;;;;;;5.80;71.15;95172.19;4142823;28;20064;-72
2022/11/15 02:18:38;;;;;;;61.40;37.22;;;;;;;5.73;70.73;95177.06;4142026;28;20479;-71
2022/11/15 02:20:45;;;;;;;58.65;36.72;;;;;;;5.71;70.87;95169.34;4142437;28;20091;-73
2022/11/15 02:23:18;;;;;;;60.65;38.83;;;;;;;5.68;71.20;95172.22;4143910;28;20575;-75
2022/11/15 02:25:34;;;;;;;65.40;38.92;;;;;;;5.65;71.91;95169.00;4142594;28;20180;-73
2022/11/15 02:27:48;;;;;;;61.97;39.05;;;;;;;5.64;71.54;95175.16;4144803;28;20665;-72
2022/11/15 02:30:25;;;;;;;56.92;35.75;;;;;;;5.58;71.78;95168.66;4145064;28;20108;-72
2022/11/15 02:32:38;;;;;;;65.97;39.30;;;;;;;5.63;72.17;95168.28;4144796;28;20217;-73
2022/11/15 02:34:56;;;;;;;65.72;40.72;;;;;;;5.72;71.39;95165.84;4144466;28;20092;-72
2022/11/15 02:37:29;;;;;;;58.65;38.13;;;;;;;5.77;71.17;95165.47;4144907;28;20080;-72
2022/11/15 02:39:38;;;;;;;62.63;40.28;;;;;;;5.80;71.28;95165.22;4143865;28;20077;-72
2022/11/15 02:41:47;;;;;;;59.92;38.22;;;;;;;5.88;70.92;95172.44;4144062;28;20492;-71
2022/11/15 02:43:58;;;;;;;60.83;40.67;;;;;;;5.95;70.74;95165.84;4144323;28;20108;-72
2022/11/15 02:46:17;;;;;;;60.63;39.42;;;;;;;5.98;70.12;95147.41;4145333;28;20421;-72
2022/11/15 02:48:21;;;;;;;55.15;37.63;;;;;;;6.08;70.22;95163.13;4144574;28;20065;-71
2022/11/15 02:50:26;;;;;;;53.83;38.70;;;;;;;6.11;69.47;95153.31;4144652;28;20073;-73
2022/11/15 02:52:27;;;;;;;60.65;38.47;;;;;;;6.20;69.64;95151.75;4144246;28;20076;-73
2022/11/15 02:54:31;;;;;;;54.78;38.25;;;;;;;6.23;69.09;95153.28;4145672;28;20058;-74
2022/11/15 02:56:33;;;;;;;58.58;35.38;;;;;;;6.28;69.27;95151.13;4144019;28;20058;-75
2022/11/15 02:58:49;;;;;;;55.97;35.83;;;;;;;6.32;69.19;95161.19;4144616;28;20057;-75
2022/11/15 03:01:03;;;;;;;52.67;35.78;;;;;;;6.36;68.63;95164.38;4136098;28;20045;-75
2022/11/15 03:03:27;;;;;;;68.88;40.75;;;;;;;6.37;68.79;95166.03;4145374;28;20135;-73
2022/11/15 03:05:51;;;;;;;61.13;39.13;;;;;;;6.43;68.83;95167.31;4126479;28;20064;-74
2022/11/15 03:07:58;;;;;;;59.72;39.10;;;;;;;6.42;69.03;95163.88;4145095;28;20050;-73
2022/11/15 03:10:09;;;;;;;62.63;40.53;;;;;;;6.41;69.06;95167.44;4141351;28;20122;-76
2022/11/15 03:12:35;;;;;;;67.07;40.45;;;;;;;6.44;69.28;95161.16;4143764;28;20096;-75
2022/11/15 03:15:03;;;;;;;64.50;39.78;;;;;;;6.49;69.15;95157.22;4145714;28;20643;-75
2022/11/15 03:17:24;;;;;;;67.28;41.40;;;;;;;6.56;68.85;95155.81;4145945;28;20054;-76
2022/11/15 03:19:34;;;;;;;69.38;40.08;;;;;;;6.62;68.94;95153.66;4145096;28;20479;-74
2022/11/15 03:21:37;;;;;;;60.38;39.38;;;;;;;6.57;68.63;95147.03;4143871;28;20128;-74
2022/11/15 03:23:40;;;;;;;72.05;43.85;;;;;;;6.54;69.13;95155.09;4143850;28;20092;-75
2022/11/15 03:25:45;;;;;;;71.82;42.60;;;;;;;6.55;68.95;95151.53;4143406;28;20141;-74
2022/11/15 03:27:52;;;;;;;69.78;42.45;;;;;;;6.62;69.25;95153.66;4143761;28;20122;-74
2022/11/15 03:29:58;;;;;;;81.30;44.83;;;;;;;6.70;68.90;95153.84;4122543;28;20121;-71
2022/11/15 03:32:03;;;;;;;82.68;45.67;;;;;;;6.74;69.31;95150.06;4141807;28;20060;-74
2022/11/15 03:34:08;;;;;;;87.88;46.78;;;;;;;6.77;69.83;95141.97;4132662;28;20325;-72
2022/11/15 03:36:10;;;;;;;89.32;46.92;;;;;;;6.78;70.25;95143.66;4143944;28;20460;-73
2022/11/15 03:38:19;;;;;;;93.43;46.97;;;;;;;6.70;70.46;95144.25;4132130;28;20064;-72
2022/11/15 03:40:27;;;;;;;97.70;48.60;;;;;;;6.66;70.80;95140.25;4143878;28;20096;-76
2022/11/15 03:43:00;;;;;;;82.20;44.78;;;;;;;6.70;71.35;95138.25;4143702;28;20059;-72
2022/11/15 03:45:10;;;;;;;94.10;47.13;;;;;;;6.71;71.36;95134.66;4144532;28;20393;-72
2022/11/15 03:47:33;;;;;;;86.80;45.67;;;;;;;6.76;71.31;95130.75;4144014;28;20404;-71
2022/11/15 03:49:36;;;;;;;90.60;45.35;;;;;;;6.81;71.05;95132.97;4131474;28;20649;-74
2022/11/15 03:51:38;;;;;;;89.70;43.30;;;;;;;6.83;71.38;95132.84;4143948;28;20452;-75
2022/11/15 03:53:41;;;;;;;87.15;45.05;;;;;;;6.87;71.25;95129.88;4144511;28;20065;-75
2022/11/15 03:55:42;;;;;;;90.72;44.50;;;;;;;6.86;71.50;95130.00;4143605;28;20041;-74
2022/11/15 03:57:44;;;;;;;85.30;44.80;;;;;;;6.81;71.43;95129.56;4143167;28;20125;-72
2022/11/15 03:59:46;;;;;;;88.68;43.38;;;;;;;6.75;71.47;95130.88;4143113;28;20519;-72
2022/11/15 04:01:48;;;;;;;86.80;42.75;;;;;;;6.71;71.44;95125.09;4125633;28;20092;-72
2022/11/15 04:03:50;;;;;;;92.88;45.15;;;;;;;6.63;72.03;95124.91;4144097;28;20156;-77
2022/11/15 04:05:51;;;;;;;89.05;45.38;;;;;;;6.68;72.47;95127.94;4146889;28;20054;-75
2022/11/15 04:07:53;;;;;;;90.20;44.33;;;;;;;6.73;71.77;95117.16;4142856;28;20153;-78
2022/11/15 04:10:05;;;;;;;90.43;45.88;;;;;;;6.68;71.87;95127.94;4140499;28;20116;-75
2022/11/15 04:12:06;;;;;;;90.35;44.38;;;;;;;6.66;71.73;95126.41;4133322;28;20411;-73
2022/11/15 04:14:08;;;;;;;87.88;46.05;;;;;;;6.65;72.12;95116.97;4144354;28;20141;-75
2022/11/15 04:16:10;;;;;;;88.38;43.13;;;;;;;6.64;71.82;95117.91;4143536;28;20169;-75
2022/11/15 04:18:12;;;;;;;88.30;44.15;;;;;;;6.66;71.61;95116.81;4142661;28;20053;-74
2022/11/15 04:24:58;;;;;;;82.05;41.08;;;;;;;6.67;71.67;95108.06;4145151;28;20077;-75
2022/11/15 04:27:01;;;;;;;89.45;45.15;;;;;;;6.65;71.74;95106.56;4143838;28;20444;-74
2022/11/15 04:31:22;;;;;;;90.95;42.40;;;;;;;6.66;71.51;95116.00;4133931;28;20518;-73
2022/11/15 04:33:24;;;;;;;81.53;41.60;;;;;;;6.45;71.45;95111.56;4142873;28;20565;-73
2022/11/15 04:35:26;;;;;;;89.32;41.28;;;;;;;6.28;72.58;95115.56;4142824;28;20419;-72
2022/11/15 04:37:28;;;;;;;89.13;41.80;;;;;;;6.06;72.98;95111.22;4144201;28;20480;-73
2022/11/15 04:39:30;;;;;;;84.65;42.50;;;;;;;5.86;73.26;95117.94;4144279;28;20057;-74
2022/11/15 04:41:31;;;;;;;90.55;43.90;;;;;;;5.79;74.63;95115.97;4144111;28;20483;-73
2022/11/15 04:43:33;;;;;;;94.10;44.20;;;;;;;5.59;75.57;95122.69;4143470;28;20076;-72
2022/11/15 04:45:35;;;;;;;96.22;42.53;;;;;;;5.51;75.50;95118.91;4143851;28;20448;-73
2022/11/15 04:47:37;;;;;;;95.10;46.00;;;;;;;5.30;75.99;95120.56;4141240;28;20058;-73
2022/11/15 04:49:39;;;;;;;106.88;47.00;;;;;;;5.28;77.28;95127.63;4142858;28;20054;-73
2022/11/15 04:51:40;;;;;;;101.38;46.35;;;;;;;5.34;77.47;95125.41;4144278;28;20057;-73
2022/11/15 04:53:42;;;;;;;98.88;47.92;;;;;;;5.45;76.79;95121.97;4143920;28;20177;-75
2022/11/15 04:55:45;;;;;;;92.22;48.25;;;;;;;5.52;76.03;95122.34;4142320;28;20053;-74
2022/11/15 04:57:47;;;;;;;104.07;50.83;;;;;;;5.43;76.06;95123.88;4143912;28;20054;-74
2022/11/15 04:59:49;;;;;;;99.32;49.88;;;;;;;5.45;76.29;95123.75;4142774;28;20061;-75
2022/11/15 05:01:50;;;;;;;107.07;49.67;;;;;;;5.45;76.64;95124.59;4142092;28;20100;-72
2022/11/15 05:06:30;;;;;;;100.60;47.25;;;;;;;5.54;76.53;95120.44;4093207;29;20051;-76
2022/11/15 05:08:32;;;;;;;106.88;49.03;;;;;;;5.68;76.10;95122.00;4112862;28;20069;-75
2022/11/15 05:10:33;;;;;;;102.43;49.08;;;;;;;5.80;76.14;95122.81;4143731;28;20088;-75
2022/11/15 05:12:36;;;;;;;110.75;50.92;;;;;;;5.57;75.67;95122.84;4142453;28;20078;-78
2022/11/15 05:14:37;;;;;;;118.10;52.85;;;;;;;5.31;76.59;95123.03;4144294;28;20485;-75
2022/11/15 05:16:39;;;;;;;115.05;50.92;;;;;;;5.24;78.04;95126.22;4142441;28;20096;-76
2022/11/15 05:18:41;;;;;;;120.93;54.85;;;;;;;5.26;77.36;95122.56;4144178;28;20172;-76
2022/11/15 05:20:42;;;;;;;113.88;55.47;;;;;;;5.26;78.08;95117.34;4144338;28;20096;-75
2022/11/15 05:22:44;;;;;;;125.93;54.25;;;;;;;5.36;77.95;95127.06;4144139;28;20050;-76
2022/11/15 05:24:46;;;;;;;107.75;51.40;;;;;;;5.52;77.62;95122.34;4144136;28;20057;-75
2022/11/15 05:26:47;;;;;;;94.18;45.95;;;;;;;5.71;77.25;95117.38;4142433;28;20050;-76
2022/11/15 05:28:56;;;;;;;95.40;47.80;;;;;;;5.84;77.05;95113.81;4143797;28;20129;-77
2022/11/15 05:31:02;;;;;;;105.85;52.25;;;;;;;6.00;76.03;95113.47;4126464;28;20141;-75
2022/11/15 05:33:04;;;;;;;88.75;42.20;;;;;;;6.15;75.68;95113.09;4158308;28;20088;-76
2022/11/15 05:35:07;;;;;;;76.38;42.83;;;;;;;6.22;74.76;95107.41;4126204;28;20550;-72
2022/11/15 05:37:08;;;;;;;78.40;43.25;;;;;;;6.30;74.04;95110.19;4142134;28;20058;-73
2022/11/15 05:39:10;;;;;;;85.60;41.83;;;;;;;6.30;74.18;95105.84;4125620;28;20054;-73
2022/11/15 05:41:12;;;;;;;77.57;39.60;;;;;;;6.37;73.91;95108.78;4143690;28;20145;-72
2022/11/15 05:43:14;;;;;;;72.38;39.00;;;;;;;6.37;73.80;95111.38;4141489;28;20073;-73
2022/11/15 05:45:16;;;;;;;85.68;39.80;;;;;;;6.35;73.53;95108.91;4143180;28;20093;-74
2022/11/15 05:47:26;;;;;;;75.22;39.13;;;;;;;6.34;73.82;95114.22;4143093;28;20056;-75
2022/11/15 05:49:32;;;;;;;81.38;39.25;;;;;;;6.31;73.94;95112.69;4140436;28;20054;-76
2022/11/15 05:51:34;;;;;;;81.75;39.50;;;;;;;6.35;74.13;95108.06;4134600;28;20077;-71
2022/11/15 05:53:36;;;;;;;94.22;44.83;;;;;;;6.39;74.04;95113.84;4140871;28;20197;-73
2022/11/15 05:55:39;;;;;;;93.07;42.22;;;;;;;6.36;73.79;95118.34;4143293;28;20468;-76
2022/11/15 05:57:41;;;;;;;96.05;45.05;;;;;;;6.43;73.47;95121.31;4143482;28;20252;-75
2022/11/15 05:59:43;;;;;;;104.32;47.53;;;;;;;6.41;73.50;95118.00;4143967;28;20141;-76
2022/11/15 06:01:44;;;;;;;98.53;47.45;;;;;;;6.42;73.47;95124.03;4145798;28;20137;-74
2022/11/15 06:03:46;;;;;;;99.72;47.80;;;;;;;6.38;74.09;95118.22;4145237;28;20046;-75
2022/11/15 06:05:48;;;;;;;106.20;50.25;;;;;;;6.34;73.98;95117.63;4146732;28;20092;-73
2022/11/15 06:07:50;;;;;;;116.30;53.20;;;;;;;6.31;74.04;95127.50;4145321;28;20520;-75
2022/11/15 06:09:51;;;;;;;114.07;51.53;;;;;;;6.45;74.08;95124.59;4141465;28;20074;-74
2022/11/15 06:11:53;;;;;;;95.80;46.13;;;;;;;6.40;73.56;95126.75;4144972;28;20042;-74
2022/11/15 06:13:56;;;;;;;120.03;53.25;;;;;;;6.36;73.88;95130.53;4144989;28;20054;-75
2022/11/15 06:15:58;;;;;;;117.68;48.72;;;;;;;6.00;74.40;95131.66;4144570;28;20748;-75
2022/11/15 06:18:00;;;;;;;115.05;51.35;;;;;;;5.50;76.58;95138.03;4146272;28;20449;-76
2022/11/15 06:20:02;;;;;;;139.35;52.78;;;;;;;5.30;77.83;95134.38;4145414;28;20481;-74
2022/11/15 06:22:03;;;;;;;130.13;53.28;;;;;;;4.85;79.20;95134.28;4145896;28;20046;-74
2022/11/15 06:24:05;;;;;;;129.10;53.40;;;;;;;4.85;79.74;95141.22;4145955;28;20053;-75
2022/11/15 06:26:07;;;;;;;145.65;57.63;;;;;;;4.76;80.17;95140.16;4146258;28;20057;-73
2022/11/15 06:28:09;;;;;;;141.52;57.28;;;;;;;4.69;81.37;95141.53;4148714;28;20054;-77
2022/11/15 06:30:10;;;;;;;132.95;58.85;;;;;;;4.66;81.02;95131.38;4129167;28;20445;-79
2022/11/15 06:32:12;;;;;;;144.75;55.50;;;;;;;4.75;81.36;95125.50;4146064;28;20049;-78
2022/11/15 06:34:14;;;;;;;132.15;55.83;;;;;;;4.75;80.56;95130.69;4146286;28;20053;-76
2022/11/15 06:36:16;;;;;;;133.73;56.55;;;;;;;4.79;80.86;95124.34;4146491;28;20072;-75
2022/11/15 06:38:18;;;;;;;153.47;59.33;;;;;;;4.92;81.59;95122.47;4137283;28;20531;-75
2022/11/15 06:40:20;;;;;;;146.93;59.35;;;;;;;5.16;80.93;95129.38;4144617;28;20962;-74
2022/11/15 06:42:22;;;;;;;190.30;64.78;;;;;;;5.12;79.40;95130.56;4145920;28;20164;-74
2022/11/15 06:44:23;;;;;;;167.15;62.55;;;;;;;5.14;79.30;95133.84;4145019;28;20531;-76
2022/11/15 06:46:25;;;;;;;165.90;62.45;;;;;;;5.16;79.41;95118.16;4127370;28;20525;-77
2022/11/15 06:48:28;;;;;;;171.15;65.72;;;;;;;5.13;79.37;95120.06;4157672;28;20401;-75
2022/11/15 06:50:29;;;;;;;159.32;62.40;;;;;;;5.22;79.64;95128.09;4156711;28;20046;-77
2022/11/15 06:52:32;;;;;;;170.95;61.88;;;;;;;5.29;79.53;95116.28;4144809;28;20046;-76
2022/11/15 06:54:34;;;;;;;145.93;59.42;;;;;;;5.39;78.81;95119.03;4144363;28;20053;-74
2022/11/15 06:56:35;;;;;;;139.88;58.22;;;;;;;5.53;78.10;95124.00;4144150;28;20118;-75
2022/11/15 06:58:37;;;;;;;139.27;62.22;;;;;;;5.67;77.82;95118.56;4144471;28;20077;-78
2022/11/15 07:00:39;;;;;;;136.57;57.63;;;;;;;5.83;76.98;95114.75;4145440;28;20062;-76
2022/11/15 07:02:41;;;;;;;145.85;60.70;;;;;;;5.97;76.93;95108.53;4145622;28;20451;-76
2022/11/15 07:04:42;;;;;;;151.20;64.55;;;;;;;6.06;75.70;95116.41;4145514;28;20046;-77
2022/11/15 07:06:47;;;;;;;138.30;61.10;;;;;;;6.17;75.22;95120.75;4145417;28;20153;-76
2022/11/15 07:08:49;;;;;;;133.63;60.28;;;;;;;6.27;74.39;95107.84;4138604;28;20046;-77
2022/11/15 07:10:51;;;;;;;140.50;62.30;;;;;;;6.19;73.48;95102.44;4141408;28;20046;-75
2022/11/15 07:12:54;;;;;;;135.70;60.17;;;;;;;5.86;74.92;95106.72;4145615;28;20049;-76
2022/11/15 07:14:55;;;;;;;132.98;59.53;;;;;;;5.52;76.45;95111.94;4144152;28;20122;-75
2022/11/15 07:16:57;;;;;;;138.20;59.88;;;;;;;5.54;76.42;95113.47;4143252;28;20092;-74
2022/11/15 07:18:59;;;;;;;119.93;55.75;;;;;;;5.65;76.73;95104.84;4145530;28;20612;-74
2022/11/15 07:21:05;;;;;;;109.80;49.28;;;;;;;5.45;76.45;95109.00;4143662;28;20198;-74
2022/11/15 07:23:07;;;;;;;112.30;49.95;;;;;;;5.33;76.62;95115.97;4127256;28;20133;-75
2022/11/15 07:25:09;;;;;;;115.68;52.53;;;;;;;5.25;77.42;95117.50;4136179;28;20049;-73
2022/11/15 07:27:11;;;;;;;108.55;51.60;;;;;;;5.38;77.35;95113.00;4145292;28;20064;-73
2022/11/15 07:29:13;;;;;;;112.10;50.65;;;;;;;5.56;77.18;95120.34;4144742;28;20046;-71
2022/11/15 07:31:14;;;;;;;105.38;52.90;;;;;;;5.71;76.66;95114.78;4143786;28;20061;-72
2022/11/15 07:33:16;;;;;;;109.50;53.88;;;;;;;5.84;76.02;95112.03;4145260;28;20046;-73
2022/11/15 07:35:18;;;;;;;99.75;51.00;;;;;;;6.00;75.43;95119.53;4144705;28;20054;-73
2022/11/15 07:37:19;;;;;;;100.93;49.65;;;;;;;6.11;74.38;95116.88;4145110;28;20119;-74
2022/11/15 07:39:21;;;;;;;107.50;49.00;;;;;;;6.27;74.08;95110.47;4144760;28;20049;-74
2022/11/15 07:41:23;;;;;;;102.50;51.03;;;;;;;6.39;73.69;95109.50;4144814;28;20101;-73
2022/11/15 07:43:27;;;;;;;101.03;49.83;;;;;;;6.51;73.43;95108.47;4144898;28;20630;-74
2022/11/15 07:45:29;;;;;;;101.80;51.45;;;;;;;6.37;72.97;95114.00;4144496;28;20050;-76
2022/11/15 07:47:31;;;;;;;97.55;49.08;;;;;;;6.30;73.15;95107.59;4142814;28;20507;-73
2022/11/15 07:49:33;;;;;;;109.70;52.60;;;;;;;6.13;73.25;95111.53;4144946;28;20042;-74
2022/11/15 07:51:34;;;;;;;98.28;49.95;;;;;;;6.03;74.33;95116.66;4144620;28;20093;-74
2022/11/15 07:53:36;;;;;;;97.13;48.97;;;;;;;6.14;74.74;95108.81;4144475;28;20534;-72
2022/11/15 07:55:40;;;;;;;97.30;50.35;;;;;;;6.29;74.20;95108.56;4126702;28;20133;-74
2022/11/15 07:57:42;;;;;;;114.93;53.85;;;;;;;6.33;73.71;95104.78;4140692;28;20136;-76
2022/11/15 07:59:43;;;;;;;113.95;55.25;;;;;;;5.90;73.69;95108.16;4125872;28;20046;-75
2022/11/15 08:01:45;;;;;;;113.35;54.83;;;;;;;5.88;75.06;95110.03;4143556;28;20459;-74
2022/11/15 08:03:47;;;;;;;117.50;55.20;;;;;;;5.69;75.66;95121.03;4144593;28;20038;-76
2022/11/15 08:05:52;;;;;;;108.47;55.47;;;;;;;5.44;76.33;95109.94;4145084;28;20153;-72
2022/11/15 08:07:55;;;;;;;112.90;53.05;;;;;;;5.45;77.45;95116.78;4143119;28;20058;-76
2022/11/15 08:09:58;;;;;;;131.30;61.55;;;;;;;5.69;76.90;95114.06;4141333;28;20078;-74
2022/11/15 08:12:00;;;;;;;128.02;60.25;;;;;;;5.89;76.29;95106.47;4144372;28;20074;-76
2022/11/15 08:14:01;;;;;;;136.68;62.90;;;;;;;6.11;75.59;95106.47;4144466;28;20049;-73
2022/11/15 08:16:05;;;;;;;132.38;64.28;;;;;;;5.78;74.79;95106.50;4136572;28;20050;-77
2022/11/15 08:18:11;;;;;;;135.07;64.75;;;;;;;5.63;76.13;95101.53;4144239;28;20062;-76
2022/11/15 08:20:13;;;;;;;135.27;61.67;;;;;;;5.45;76.53;95108.16;4143137;28;20118;-75
2022/11/15 08:22:15;;;;;;;135.52;65.80;;;;;;;5.67;77.43;95107.34;4142709;28;20155;-74
2022/11/15 08:24:16;;;;;;;134.93;65.88;;;;;;;5.72;76.58;95100.00;4142218;28;20125;-76
2022/11/15 08:26:18;;;;;;;147.52;67.75;;;;;;;5.71;75.79;95098.34;4144360;28;20085;-77
2022/11/15 08:28:20;;;;;;;133.07;64.57;;;;;;;5.49;76.84;95099.19;4144502;28;20105;-74
2022/11/15 08:30:23;;;;;;;136.63;64.35;;;;;;;5.59;77.40;95107.91;4144071;28;20081;-77
2022/11/15 08:32:25;;;;;;;140.17;68.33;;;;;;;5.82;76.77;95097.50;4142623;28;20096;-77
2022/11/15 08:34:27;;;;;;;142.07;65.55;;;;;;;6.04;75.88;95092.28;4144681;28;20654;-74
2022/11/15 08:36:28;;;;;;;153.02;67.25;;;;;;;6.28;75.50;95091.28;4145275;28;20117;-75
2022/11/15 08:38:42;;;;;;;144.50;68.00;;;;;;;6.53;74.18;95090.13;4146414;28;20131;-77
2022/11/15 08:40:44;;;;;;;149.48;65.03;;;;;;;6.62;73.06;95084.19;4142856;28;20081;-75
2022/11/15 08:42:46;;;;;;;145.88;65.55;;;;;;;6.76;73.15;95083.06;4143303;28;20129;-76
2022/11/15 08:44:48;;;;;;;143.27;66.88;;;;;;;6.83;72.49;95086.81;4143052;28;20133;-75
2022/11/15 08:46:50;;;;;;;132.50;63.03;;;;;;;6.95;72.23;95080.59;4143234;28;20124;-75
2022/11/15 08:48:51;;;;;;;123.70;61.22;;;;;;;7.05;72.25;95074.59;4142863;28;20046;-76
2022/11/15 08:50:55;;;;;;;131.52;61.42;;;;;;;6.78;72.20;95081.16;4143787;28;20133;-75
2022/11/15 08:52:56;;;;;;;124.45;59.08;;;;;;;6.74;72.99;95075.38;4142808;28;20375;-76
2022/11/15 08:54:58;;;;;;;127.82;62.10;;;;;;;6.68;72.69;95070.66;4144723;28;20097;-75
2022/11/15 08:57:00;;;;;;;124.97;58.78;;;;;;;6.64;73.06;95076.25;4144850;28;20045;-75
2022/11/15 08:59:01;;;;;;;117.88;57.78;;;;;;;6.69;72.79;95076.69;4144154;28;20369;-75
2022/11/15 09:01:04;;;;;;;123.90;63.15;;;;;;;6.83;73.22;95075.56;4142375;28;20061;-74
2022/11/15 09:03:07;;;;;;;131.20;62.20;;;;;;;6.66;72.37;95071.75;4143733;28;20085;-77
2022/11/15 09:05:08;;;;;;;128.52;62.10;;;;;;;6.52;73.01;95067.69;4144166;28;20104;-76
2022/11/15 09:07:11;;;;;;;126.13;65.15;;;;;;;6.53;73.65;95067.53;4143734;28;20077;-75
2022/11/15 09:09:12;;;;;;;130.10;62.97;;;;;;;6.40;73.65;95058.25;4141869;28;20086;-77
2022/11/15 09:11:16;;;;;;;121.63;61.25;;;;;;;6.48;73.80;95061.06;4141788;28;20185;-74
2022/11/15 09:13:18;;;;;;;139.00;63.15;;;;;;;6.31;73.64;95059.84;4141252;28;20132;-75
2022/11/15 09:15:19;;;;;;;132.27;63.30;;;;;;;6.14;74.25;95054.19;4143585;28;20084;-74
2022/11/15 09:17:21;;;;;;;129.15;64.15;;;;;;;6.09;74.73;95055.53;4143107;28;20435;-72
2022/11/15 09:19:25;;;;;;;140.65;67.38;;;;;;;5.84;75.49;95051.44;4143900;28;20523;-73
2022/11/15 09:21:29;;;;;;;144.13;70.38;;;;;;;5.72;76.11;95048.84;4143669;28;20081;-74
2022/11/15 09:23:31;;;;;;;137.50;66.38;;;;;;;5.84;76.13;95044.44;4141687;28;20089;-76
2022/11/15 09:25:32;;;;;;;129.07;65.57;;;;;;;5.98;75.77;95038.19;4143660;28;20050;-73
2022/11/15 09:27:34;;;;;;;135.23;66.10;;;;;;;6.03;74.98;95046.44;4143302;28;20136;-72
2022/11/15 09:29:54;;;;;;;139.23;71.38;;;;;;;6.21;75.01;95038.09;4143868;28;20091;-74
2022/11/15 09:31:55;;;;;;;126.70;65.82;;;;;;;6.38;74.51;95034.97;4141863;28;20149;-73
2022/11/15 09:33:57;;;;;;;135.23;67.88;;;;;;;6.32;74.07;95033.69;4143973;28;20158;-73
2022/11/15 09:36:07;;;;;;;114.60;63.33;;;;;;;6.50;74.43;95033.97;4146708;28;20073;-73
2022/11/15 09:38:09;;;;;;;136.23;65.90;;;;;;;6.71;73.41;95031.38;4144833;28;20049;-71
2022/11/15 09:40:17;;;;;;;123.80;63.17;;;;;;;6.79;72.29;95025.50;4147069;28;20054;-74
2022/11/15 09:42:35;;;;;;;123.53;61.78;;;;;;;6.94;72.27;95018.19;4145192;28;20056;-75
2022/11/15 09:44:50;;;;;;;118.65;62.85;;;;;;;7.24;71.78;95019.97;4133339;28;20073;-74
2022/11/15 09:47:00;;;;;;;112.40;63.25;;;;;;;7.47;70.52;95014.59;4143082;28;20049;-73